sensor_id;sensor_type;location;lat;lon;timestamp;pressure;altitude;pressure_sealevel;temperature
62932;BMP280;49037;41.898;25.004;2022-07-21T00:00:14;96630.03;;;21.13
62932;BMP280;49037;41.898;25.004;2022-07-21T00:04:01;96636.34;;;21.04
62932;BMP280;49037;41.898;25.004;2022-07-21T00:09:51;96629.69;;;20.83
62932;BMP280;49037;41.898;25.004;2022-07-21T00:12:16;96636.97;;;20.92
62932;BMP280;49037;41.898;25.004;2022-07-21T00:14:45;96628.06;;;20.78
62932;BMP280;49037;41.898;25.004;2022-07-21T00:17:14;96638.56;;;20.83
62932;BMP280;49037;41.898;25.004;2022-07-21T00:19:39;96626.66;;;20.77
62932;BMP280;49037;41.898;25.004;2022-07-21T00:22:05;96627.50;;;20.68
62932;BMP280;49037;41.898;25.004;2022-07-21T00:24:32;96630.22;;;20.68
62932;BMP280;49037;41.898;25.004;2022-07-21T00:26:58;96629.06;;;20.59
62932;BMP280;49037;41.898;25.004;2022-07-21T00:29:23;96642.38;;;20.67
62932;BMP280;49037;41.898;25.004;2022-07-21T00:31:52;96627.06;;;20.60
62932;BMP280;49037;41.898;25.004;2022-07-21T00:34:17;96636.03;;;20.62
62932;BMP280;49037;41.898;25.004;2022-07-21T00:36:43;96625.63;;;20.59
62932;BMP280;49037;41.898;25.004;2022-07-21T00:39:08;96629.28;;;20.63
62932;BMP280;49037;41.898;25.004;2022-07-21T00:41:34;96634.28;;;20.56
62932;BMP280;49037;41.898;25.004;2022-07-21T00:43:59;96630.41;;;20.47
62932;BMP280;49037;41.898;25.004;2022-07-21T00:46:27;96634.66;;;20.39
62932;BMP280;49037;41.898;25.004;2022-07-21T00:48:55;96632.66;;;20.39
62932;BMP280;49037;41.898;25.004;2022-07-21T00:51:26;96624.78;;;20.32
62932;BMP280;49037;41.898;25.004;2022-07-21T00:53:51;96629.00;;;20.46
62932;BMP280;49037;41.898;25.004;2022-07-21T00:56:20;96618.59;;;20.43
62932;BMP280;49037;41.898;25.004;2022-07-21T00:58:46;96623.09;;;20.50
62932;BMP280;49037;41.898;25.004;2022-07-21T01:01:28;96622.16;;;20.45
62932;BMP280;49037;41.898;25.004;2022-07-21T01:03:54;96626.88;;;20.45
62932;BMP280;49037;41.898;25.004;2022-07-21T01:06:19;96621.06;;;20.50
62932;BMP280;49037;41.898;25.004;2022-07-21T01:08:45;96614.34;;;20.51
62932;BMP280;49037;41.898;25.004;2022-07-21T01:11:13;96613.28;;;20.56
62932;BMP280;49037;41.898;25.004;2022-07-21T01:13:39;96612.47;;;20.54
62932;BMP280;49037;41.898;25.004;2022-07-21T01:16:07;96613.72;;;20.64
62932;BMP280;49037;41.898;25.004;2022-07-21T01:18:33;96618.00;;;20.56
62932;BMP280;49037;41.898;25.004;2022-07-21T01:23:13;96610.50;;;20.67
62932;BMP280;49037;41.898;25.004;2022-07-21T01:25:57;96612.41;;;20.65
62932;BMP280;49037;41.898;25.004;2022-07-21T01:28:25;96608.28;;;20.64
62932;BMP280;49037;41.898;25.004;2022-07-21T01:30:51;96612.19;;;20.61
62932;BMP280;49037;41.898;25.004;2022-07-21T01:33:16;96602.19;;;20.52
62932;BMP280;49037;41.898;25.004;2022-07-21T01:35:42;96605.25;;;20.58
62932;BMP280;49037;41.898;25.004;2022-07-21T01:40:00;96605.34;;;20.60
62932;BMP280;49037;41.898;25.004;2022-07-21T01:42:47;96595.47;;;20.53
62932;BMP280;49037;41.898;25.004;2022-07-21T01:45:33;96596.19;;;20.54
62932;BMP280;49037;41.898;25.004;2022-07-21T01:49:07;96601.56;;;20.65
62932;BMP280;49037;41.898;25.004;2022-07-21T01:51:42;96589.78;;;20.60
62932;BMP280;49037;41.898;25.004;2022-07-21T01:54:08;96586.69;;;20.66
62932;BMP280;49037;41.898;25.004;2022-07-21T01:58:11;96588.97;;;20.58
62932;BMP280;49037;41.898;25.004;2022-07-21T02:00:36;96589.41;;;20.66
62932;BMP280;49037;41.898;25.004;2022-07-21T02:03:02;96580.31;;;20.61
62932;BMP280;49037;41.898;25.004;2022-07-21T02:05:30;96573.50;;;20.60
62932;BMP280;49037;41.898;25.004;2022-07-21T02:07:56;96569.38;;;20.59
62932;BMP280;49037;41.898;25.004;2022-07-21T02:10:32;96564.63;;;20.60
62932;BMP280;49037;41.898;25.004;2022-07-21T02:12:57;96580.53;;;20.65
62932;BMP280;49037;41.898;25.004;2022-07-21T02:15:29;96588.31;;;20.71
62932;BMP280;49037;41.898;25.004;2022-07-21T02:18:17;96575.78;;;20.77
62932;BMP280;49037;41.898;25.004;2022-07-21T02:20:53;96570.63;;;20.70
62932;BMP280;49037;41.898;25.004;2022-07-21T02:23:20;96581.34;;;20.68
62932;BMP280;49037;41.898;25.004;2022-07-21T02:25:50;96575.84;;;20.66
62932;BMP280;49037;41.898;25.004;2022-07-21T02:28:23;96576.78;;;20.59
62932;BMP280;49037;41.898;25.004;2022-07-21T02:30:54;96592.63;;;20.62
62932;BMP280;49037;41.898;25.004;2022-07-21T02:33:21;96589.28;;;20.64
62932;BMP280;49037;41.898;25.004;2022-07-21T02:35:52;96586.47;;;20.62
62932;BMP280;49037;41.898;25.004;2022-07-21T02:38:17;96569.09;;;20.42
62932;BMP280;49037;41.898;25.004;2022-07-21T02:40:43;96574.25;;;20.50
62932;BMP280;49037;41.898;25.004;2022-07-21T02:43:11;96567.97;;;20.47
62932;BMP280;49037;41.898;25.004;2022-07-21T02:45:36;96569.75;;;20.54
62932;BMP280;49037;41.898;25.004;2022-07-21T02:48:10;96578.41;;;20.64
62932;BMP280;49037;41.898;25.004;2022-07-21T02:51:09;96570.78;;;20.60
62932;BMP280;49037;41.898;25.004;2022-07-21T02:54:19;96556.34;;;20.69
62932;BMP280;49037;41.898;25.004;2022-07-21T02:56:56;96557.22;;;20.60
62932;BMP280;49037;41.898;25.004;2022-07-21T02:59:25;96576.34;;;20.51
62932;BMP280;49037;41.898;25.004;2022-07-21T03:02:21;96558.66;;;20.50
62932;BMP280;49037;41.898;25.004;2022-07-21T03:04:49;96571.50;;;20.61
62932;BMP280;49037;41.898;25.004;2022-07-21T03:07:37;96576.88;;;20.72
62932;BMP280;49037;41.898;25.004;2022-07-21T03:10:08;96561.72;;;20.81
62932;BMP280;49037;41.898;25.004;2022-07-21T03:12:59;96554.28;;;20.81
62932;BMP280;49037;41.898;25.004;2022-07-21T03:15:45;96567.97;;;20.83
62932;BMP280;49037;41.898;25.004;2022-07-21T03:21:18;96545.59;;;20.96
62932;BMP280;49037;41.898;25.004;2022-07-21T03:24:12;96555.28;;;21.12
62932;BMP280;49037;41.898;25.004;2022-07-21T03:26:44;96554.06;;;21.15
62932;BMP280;49037;41.898;25.004;2022-07-21T03:41:08;96557.16;;;21.74
62932;BMP280;49037;41.898;25.004;2022-07-21T03:43:45;96549.22;;;21.65
62932;BMP280;49037;41.898;25.004;2022-07-21T03:46:40;96554.75;;;21.54
62932;BMP280;49037;41.898;25.004;2022-07-21T04:02:09;96561.44;;;22.19
62932;BMP280;49037;41.898;25.004;2022-07-21T04:04:58;96561.69;;;21.97
62932;BMP280;49037;41.898;25.004;2022-07-21T04:09:18;96562.00;;;21.89
62932;BMP280;49037;41.898;25.004;2022-07-21T04:11:44;96559.16;;;21.87
62932;BMP280;49037;41.898;25.004;2022-07-21T04:14:36;96574.47;;;21.94
62932;BMP280;49037;41.898;25.004;2022-07-21T04:17:04;96576.78;;;22.00
62932;BMP280;49037;41.898;25.004;2022-07-21T04:36:39;96560.34;;;22.68
62932;BMP280;49037;41.898;25.004;2022-07-21T04:39:10;96560.44;;;22.55
62932;BMP280;49037;41.898;25.004;2022-07-21T04:41:45;96572.19;;;22.59
62932;BMP280;49037;41.898;25.004;2022-07-21T04:44:36;96554.50;;;22.45
62932;BMP280;49037;41.898;25.004;2022-07-21T04:47:18;96557.41;;;22.49
62932;BMP280;49037;41.898;25.004;2022-07-21T04:50:13;96571.72;;;22.49
62932;BMP280;49037;41.898;25.004;2022-07-21T04:58:58;96581.75;;;22.60
62932;BMP280;49037;41.898;25.004;2022-07-21T05:04:36;96568.19;;;22.76
62932;BMP280;49037;41.898;25.004;2022-07-21T05:20:00;96590.00;;;23.83
62932;BMP280;49037;41.898;25.004;2022-07-21T05:24:29;96591.25;;;24.12
62932;BMP280;49037;41.898;25.004;2022-07-21T05:26:59;96581.81;;;24.15
62932;BMP280;49037;41.898;25.004;2022-07-21T05:29:43;96595.53;;;24.34
62932;BMP280;49037;41.898;25.004;2022-07-21T05:35:28;96588.69;;;24.68
62932;BMP280;49037;41.898;25.004;2022-07-21T05:41:00;96594.47;;;25.12
62932;BMP280;49037;41.898;25.004;2022-07-21T05:51:04;96586.97;;;25.90
62932;BMP280;49037;41.898;25.004;2022-07-21T05:53:38;96584.66;;;26.03
62932;BMP280;49037;41.898;25.004;2022-07-21T06:04:33;96585.03;;;27.04
62932;BMP280;49037;41.898;25.004;2022-07-21T06:07:11;96587.06;;;27.29
62932;BMP280;49037;41.898;25.004;2022-07-21T06:13:01;96594.16;;;27.88
62932;BMP280;49037;41.898;25.004;2022-07-21T06:54:03;96571.34;;;30.24
62932;BMP280;49037;41.898;25.004;2022-07-21T07:07:59;96564.63;;;29.90
62932;BMP280;49037;41.898;25.004;2022-07-21T07:18:15;96563.16;;;30.30
62932;BMP280;49037;41.898;25.004;2022-07-21T07:20:46;96566.06;;;30.40
62932;BMP280;49037;41.898;25.004;2022-07-21T07:23:43;96568.06;;;30.34
62932;BMP280;49037;41.898;25.004;2022-07-21T07:50:22;96565.38;;;30.94
62932;BMP280;49037;41.898;25.004;2022-07-21T07:53:06;96560.09;;;31.18
62932;BMP280;49037;41.898;25.004;2022-07-21T07:55:37;96560.16;;;31.22
62932;BMP280;49037;41.898;25.004;2022-07-21T08:01:46;96566.75;;;31.65
62932;BMP280;49037;41.898;25.004;2022-07-21T08:04:20;96566.91;;;31.81
62932;BMP280;49037;41.898;25.004;2022-07-21T08:06:48;96560.06;;;31.88
62932;BMP280;49037;41.898;25.004;2022-07-21T08:09:39;96546.97;;;31.96
62932;BMP280;49037;41.898;25.004;2022-07-21T08:12:15;96550.19;;;31.65
62932;BMP280;49037;41.898;25.004;2022-07-21T08:18:44;96544.47;;;32.40
62932;BMP280;49037;41.898;25.004;2022-07-21T08:29:15;96536.94;;;32.56
62932;BMP280;49037;41.898;25.004;2022-07-21T08:31:40;96537.69;;;32.74
62932;BMP280;49037;41.898;25.004;2022-07-21T08:34:06;96534.88;;;32.66
62932;BMP280;49037;41.898;25.004;2022-07-21T08:36:34;96530.75;;;32.71
62932;BMP280;49037;41.898;25.004;2022-07-21T08:38:59;96538.22;;;32.39
62932;BMP280;49037;41.898;25.004;2022-07-21T08:41:36;96531.97;;;32.31
62932;BMP280;49037;41.898;25.004;2022-07-21T08:44:02;96533.41;;;32.42
62932;BMP280;49037;41.898;25.004;2022-07-21T08:46:40;96531.16;;;32.13
62932;BMP280;49037;41.898;25.004;2022-07-21T08:49:09;96523.69;;;32.35
62932;BMP280;49037;41.898;25.004;2022-07-21T08:51:34;96534.06;;;32.36
62932;BMP280;49037;41.898;25.004;2022-07-21T08:54:00;96530.72;;;32.61
62932;BMP280;49037;41.898;25.004;2022-07-21T08:56:29;96540.44;;;32.78
62932;BMP280;49037;41.898;25.004;2022-07-21T08:58:55;96530.72;;;32.65
62932;BMP280;49037;41.898;25.004;2022-07-21T09:01:20;96530.00;;;32.63
62932;BMP280;49037;41.898;25.004;2022-07-21T09:03:55;96532.19;;;32.80
62932;BMP280;49037;41.898;25.004;2022-07-21T09:06:20;96523.94;;;33.12
62932;BMP280;49037;41.898;25.004;2022-07-21T09:08:51;96534.91;;;32.76
62932;BMP280;49037;41.898;25.004;2022-07-21T09:11:24;96537.78;;;33.12
62932;BMP280;49037;41.898;25.004;2022-07-21T09:14:11;96528.78;;;33.27
62932;BMP280;49037;41.898;25.004;2022-07-21T09:16:39;96533.63;;;33.42
62932;BMP280;49037;41.898;25.004;2022-07-21T09:19:39;96533.63;;;33.38
62932;BMP280;49037;41.898;25.004;2022-07-21T09:22:16;96538.47;;;33.36
62932;BMP280;49037;41.898;25.004;2022-07-21T09:24:49;96537.78;;;33.57
62932;BMP280;49037;41.898;25.004;2022-07-21T09:27:22;96530.84;;;33.78
62932;BMP280;49037;41.898;25.004;2022-07-21T09:29:51;96532.94;;;33.73
62932;BMP280;49037;41.898;25.004;2022-07-21T09:32:20;96533.63;;;33.80
62932;BMP280;49037;41.898;25.004;2022-07-21T09:34:48;96518.38;;;33.81
62932;BMP280;49037;41.898;25.004;2022-07-21T09:37:15;96525.97;;;33.76
62932;BMP280;49037;41.898;25.004;2022-07-21T09:42:27;96532.19;;;34.02
62932;BMP280;49037;41.898;25.004;2022-07-21T09:45:00;96516.94;;;34.03
62932;BMP280;49037;41.898;25.004;2022-07-21T09:47:31;96527.38;;;33.97
62932;BMP280;49037;41.898;25.004;2022-07-21T09:49:58;96533.56;;;33.95
62932;BMP280;49037;41.898;25.004;2022-07-21T09:52:39;96530.13;;;33.99
62932;BMP280;49037;41.898;25.004;2022-07-21T09:55:08;96529.44;;;33.86
62932;BMP280;49037;41.898;25.004;2022-07-21T09:57:34;96532.19;;;34.08
62932;BMP280;49037;41.898;25.004;2022-07-21T10:00:00;96529.44;;;34.02
62932;BMP280;49037;41.898;25.004;2022-07-21T10:02:30;96530.09;;;34.07
62932;BMP280;49037;41.898;25.004;2022-07-21T10:05:03;96523.81;;;34.18
62932;BMP280;49037;41.898;25.004;2022-07-21T10:07:29;96523.84;;;34.06
62932;BMP280;49037;41.898;25.004;2022-07-21T10:09:57;96517.69;;;33.82
62932;BMP280;49037;41.898;25.004;2022-07-21T10:12:25;96525.97;;;33.94
62932;BMP280;49037;41.898;25.004;2022-07-21T10:14:51;96514.88;;;33.96
62932;BMP280;49037;41.898;25.004;2022-07-21T10:17:18;96505.22;;;33.67
62932;BMP280;49037;41.898;25.004;2022-07-21T10:22:20;96512.78;;;33.96
62932;BMP280;49037;41.898;25.004;2022-07-21T10:24:49;96504.53;;;33.71
62932;BMP280;49037;41.898;25.004;2022-07-21T10:27:15;96507.31;;;33.55
62932;BMP280;49037;41.898;25.004;2022-07-21T10:32:14;96518.38;;;33.82
62932;BMP280;49037;41.898;25.004;2022-07-21T10:35:26;96509.34;;;33.90
62932;BMP280;49037;41.898;25.004;2022-07-21T10:37:46;96505.78;;;34.15
62932;BMP280;49037;41.898;25.004;2022-07-21T10:42:44;96508.56;;;34.13
62932;BMP280;49037;41.898;25.004;2022-07-21T10:45:38;96508.59;;;33.95
62932;BMP280;49037;41.898;25.004;2022-07-21T10:48:09;96506.53;;;34.02
62932;BMP280;49037;41.898;25.004;2022-07-21T10:50:57;96498.91;;;34.04
62932;BMP280;49037;41.898;25.004;2022-07-21T10:53:43;96493.97;;;34.20
62932;BMP280;49037;41.898;25.004;2022-07-21T11:02:42;96487.72;;;34.28
62932;BMP280;49037;41.898;25.004;2022-07-21T11:05:08;96482.06;;;34.45
62932;BMP280;49037;41.898;25.004;2022-07-21T11:10:50;96495.31;;;34.37
62932;BMP280;49037;41.898;25.004;2022-07-21T11:13:19;96485.50;;;34.56
62932;BMP280;49037;41.898;25.004;2022-07-21T11:16:09;96471.50;;;34.75
62932;BMP280;49037;41.898;25.004;2022-07-21T11:18:42;96473.50;;;34.87
62932;BMP280;49037;41.898;25.004;2022-07-21T11:21:13;96473.69;;;34.61
62932;BMP280;49037;41.898;25.004;2022-07-21T11:23:49;96477.06;;;34.71
62932;BMP280;49037;41.898;25.004;2022-07-21T11:26:24;96476.66;;;34.22
62932;BMP280;49037;41.898;25.004;2022-07-21T11:29:06;96480.06;;;34.30
62932;BMP280;49037;41.898;25.004;2022-07-21T11:31:55;96480.81;;;34.21
62932;BMP280;49037;41.898;25.004;2022-07-21T11:34:22;96472.50;;;34.19
62932;BMP280;49037;41.898;25.004;2022-07-21T11:37:06;96473.09;;;34.45
62932;BMP280;49037;41.898;25.004;2022-07-21T11:39:32;96458.59;;;34.31
62932;BMP280;49037;41.898;25.004;2022-07-21T11:42:06;96454.38;;;34.40
62932;BMP280;49037;41.898;25.004;2022-07-21T11:44:43;96450.75;;;34.65
62932;BMP280;49037;41.898;25.004;2022-07-21T11:47:17;96452.06;;;34.77
62932;BMP280;49037;41.898;25.004;2022-07-21T11:49:45;96447.94;;;34.71
62932;BMP280;49037;41.898;25.004;2022-07-21T11:52:14;96437.41;;;34.83
62932;BMP280;49037;41.898;25.004;2022-07-21T11:54:49;96444.41;;;34.80
62932;BMP280;49037;41.898;25.004;2022-07-21T11:57:18;96434.69;;;34.77
62932;BMP280;49037;41.898;25.004;2022-07-21T11:59:46;96438.72;;;34.96
62932;BMP280;49037;41.898;25.004;2022-07-21T12:02:41;96438.50;;;35.21
62932;BMP280;49037;41.898;25.004;2022-07-21T12:05:16;96441.84;;;35.37
62932;BMP280;49037;41.898;25.004;2022-07-21T12:08:08;96432.16;;;35.31
62932;BMP280;49037;41.898;25.004;2022-07-21T12:11:05;96434.75;;;35.50
62932;BMP280;49037;41.898;25.004;2022-07-21T12:13:58;96428.28;;;35.67
62932;BMP280;49037;41.898;25.004;2022-07-21T12:20:03;96425.50;;;35.67
62932;BMP280;49037;41.898;25.004;2022-07-21T12:22:52;96424.19;;;35.62
62932;BMP280;49037;41.898;25.004;2022-07-21T12:25:33;96419.66;;;35.30
62932;BMP280;49037;41.898;25.004;2022-07-21T12:28:02;96418.56;;;35.01
62932;BMP280;49037;41.898;25.004;2022-07-21T12:30:42;96421.88;;;35.13
62932;BMP280;49037;41.898;25.004;2022-07-21T12:33:37;96418.75;;;35.51
62932;BMP280;49037;41.898;25.004;2022-07-21T12:36:23;96412.97;;;35.68
62932;BMP280;49037;41.898;25.004;2022-07-21T12:39:14;96404.66;;;35.70
62932;BMP280;49037;41.898;25.004;2022-07-21T12:42:05;96399.81;;;35.67
62932;BMP280;49037;41.898;25.004;2022-07-21T12:50:32;96404.38;;;35.31
62932;BMP280;49037;41.898;25.004;2022-07-21T12:53:10;96392.72;;;35.14
62932;BMP280;49037;41.898;25.004;2022-07-21T12:55:41;96400.34;;;35.16
62932;BMP280;49037;41.898;25.004;2022-07-21T12:58:12;96397.00;;;35.03
62932;BMP280;49037;41.898;25.004;2022-07-21T13:00:47;96399.13;;;34.97
62932;BMP280;49037;41.898;25.004;2022-07-21T13:03:21;96397.84;;;34.84
62932;BMP280;49037;41.898;25.004;2022-07-21T13:05:46;96381.75;;;35.01
62932;BMP280;49037;41.898;25.004;2022-07-21T13:08:12;96387.84;;;35.17
62932;BMP280;49037;41.898;25.004;2022-07-21T13:10:38;96376.69;;;35.21
62932;BMP280;49037;41.898;25.004;2022-07-21T13:13:03;96389.88;;;35.20
62932;BMP280;49037;41.898;25.004;2022-07-21T13:15:31;96399.88;;;34.92
62932;BMP280;49037;41.898;25.004;2022-07-21T13:18:09;96381.78;;;34.99
62932;BMP280;49037;41.898;25.004;2022-07-21T13:20:34;96367.34;;;34.80
62932;BMP280;49037;41.898;25.004;2022-07-21T13:23:00;96376.25;;;34.91
62932;BMP280;49037;41.898;25.004;2022-07-21T13:25:25;96374.97;;;34.82
62932;BMP280;49037;41.898;25.004;2022-07-21T13:27:51;96370.13;;;34.82
62932;BMP280;49037;41.898;25.004;2022-07-21T13:30:26;96372.84;;;34.86
62932;BMP280;49037;41.898;25.004;2022-07-21T13:32:51;96379.75;;;34.89
62932;BMP280;49037;41.898;25.004;2022-07-21T13:35:17;96367.97;;;34.89
62932;BMP280;49037;41.898;25.004;2022-07-21T13:37:48;96369.47;;;34.74
62932;BMP280;49037;41.898;25.004;2022-07-21T13:40:22;96367.97;;;34.89
62932;BMP280;49037;41.898;25.004;2022-07-21T13:42:50;96367.34;;;34.80
62932;BMP280;49037;41.898;25.004;2022-07-21T13:45:30;96368.16;;;34.65
62932;BMP280;49037;41.898;25.004;2022-07-21T13:48:27;96358.53;;;34.54
62932;BMP280;49037;41.898;25.004;2022-07-21T13:50:55;96371.59;;;34.70
62932;BMP280;49037;41.898;25.004;2022-07-21T13:53:20;96371.50;;;34.79
62932;BMP280;49037;41.898;25.004;2022-07-21T13:55:46;96370.88;;;34.73
62932;BMP280;49037;41.898;25.004;2022-07-21T13:58:16;96362.56;;;34.69
62932;BMP280;49037;41.898;25.004;2022-07-21T14:00:44;96369.59;;;34.60
62932;BMP280;49037;41.898;25.004;2022-07-21T14:03:09;96369.59;;;34.58
62932;BMP280;49037;41.898;25.004;2022-07-21T14:05:40;96382.09;;;34.61
62932;BMP280;49037;41.898;25.004;2022-07-21T14:08:09;96366.94;;;34.44
62932;BMP280;49037;41.898;25.004;2022-07-21T14:10:37;96372.38;;;34.58
62932;BMP280;49037;41.898;25.004;2022-07-21T14:13:04;96366.09;;;34.64
62932;BMP280;49037;41.898;25.004;2022-07-21T14:15:30;96373.78;;;34.57
62932;BMP280;49037;41.898;25.004;2022-07-21T14:17:55;96378.69;;;34.51
62932;BMP280;49037;41.898;25.004;2022-07-21T14:20:21;96378.78;;;34.37
62932;BMP280;49037;41.898;25.004;2022-07-21T14:22:46;96365.66;;;34.28
62932;BMP280;49037;41.898;25.004;2022-07-21T14:25:12;96369.09;;;34.26
62932;BMP280;49037;41.898;25.004;2022-07-21T14:27:51;96360.81;;;34.22
62932;BMP280;49037;41.898;25.004;2022-07-21T14:30:18;96374.06;;;34.12
62932;BMP280;49037;41.898;25.004;2022-07-21T14:32:44;96363.13;;;33.79
62932;BMP280;49037;41.898;25.004;2022-07-21T14:35:14;96372.81;;;33.87
62932;BMP280;49037;41.898;25.004;2022-07-21T14:37:48;96363.09;;;33.86
62932;BMP280;49037;41.898;25.004;2022-07-21T14:46:52;96352.50;;;34.20
62932;BMP280;49037;41.898;25.004;2022-07-21T14:49:23;96349.72;;;34.20
62932;BMP280;49037;41.898;25.004;2022-07-21T14:51:54;96358.19;;;33.99
62932;BMP280;49037;41.898;25.004;2022-07-21T14:54:27;96357.41;;;34.14
62932;BMP280;49037;41.898;25.004;2022-07-21T14:56:56;96350.47;;;34.13
62932;BMP280;49037;41.898;25.004;2022-07-21T14:59:41;96356.09;;;34.01
62932;BMP280;49037;41.898;25.004;2022-07-21T15:02:09;96350.47;;;34.13
62932;BMP280;49037;41.898;25.004;2022-07-21T15:04:35;96350.47;;;34.17
62932;BMP280;49037;41.898;25.004;2022-07-21T15:07:01;96353.22;;;34.17
62932;BMP280;49037;41.898;25.004;2022-07-21T15:09:29;96346.25;;;34.24
62932;BMP280;49037;41.898;25.004;2022-07-21T15:12:00;96342.19;;;34.11
62932;BMP280;49037;41.898;25.004;2022-07-21T15:14:26;96335.31;;;34.02
62932;BMP280;49037;41.898;25.004;2022-07-21T15:16:52;96340.25;;;33.80
62932;BMP280;49037;41.898;25.004;2022-07-21T15:19:17;96339.50;;;33.93
62932;BMP280;49037;41.898;25.004;2022-07-21T15:21:53;96341.63;;;33.87
62932;BMP280;49037;41.898;25.004;2022-07-21T15:24:19;96334.00;;;33.87
62932;BMP280;49037;41.898;25.004;2022-07-21T15:26:47;96340.88;;;33.90
62932;BMP280;49037;41.898;25.004;2022-07-21T15:29:15;96335.28;;;34.04
62932;BMP280;49037;41.898;25.004;2022-07-21T15:31:43;96324.84;;;34.07
62932;BMP280;49037;41.898;25.004;2022-07-21T15:34:11;96336.59;;;34.21
62932;BMP280;49037;41.898;25.004;2022-07-21T15:36:46;96333.03;;;34.32
62932;BMP280;49037;41.898;25.004;2022-07-21T15:55:23;96326.19;;;34.17
62932;BMP280;49037;41.898;25.004;2022-07-21T15:58:00;96329.69;;;34.14
62932;BMP280;49037;41.898;25.004;2022-07-21T16:10:06;96334.06;;;33.76
62932;BMP280;49037;41.898;25.004;2022-07-21T16:12:42;96327.16;;;33.71
62932;BMP280;49037;41.898;25.004;2022-07-21T16:15:56;96327.94;;;33.38
62932;BMP280;49037;41.898;25.004;2022-07-21T16:29:21;96330.13;;;32.45
62932;BMP280;49037;41.898;25.004;2022-07-21T16:32:07;96341.81;;;32.35
62932;BMP280;49037;41.898;25.004;2022-07-21T16:34:35;96330.75;;;32.22
62932;BMP280;49037;41.898;25.004;2022-07-21T16:37:02;96343.88;;;32.19
62932;BMP280;49037;41.898;25.004;2022-07-21T16:39:50;96345.81;;;31.85
62932;BMP280;49037;41.898;25.004;2022-07-21T16:42:19;96335.19;;;31.31
62932;BMP280;49037;41.898;25.004;2022-07-21T16:44:44;96343.44;;;31.25
62932;BMP280;49037;41.898;25.004;2022-07-21T16:47:19;96336.50;;;31.18
62932;BMP280;49037;41.898;25.004;2022-07-21T16:49:44;96340.59;;;31.11
62932;BMP280;49037;41.898;25.004;2022-07-21T16:52:10;96340.34;;;30.83
62932;BMP280;49037;41.898;25.004;2022-07-21T16:54:38;96341.69;;;30.76
62932;BMP280;49037;41.898;25.004;2022-07-21T16:57:06;96347.84;;;30.71
62932;BMP280;49037;41.898;25.004;2022-07-21T16:59:32;96350.44;;;30.53
62932;BMP280;49037;41.898;25.004;2022-07-21T17:01:57;96353.72;;;30.38
62932;BMP280;49037;41.898;25.004;2022-07-21T17:04:30;96350.88;;;30.26
62932;BMP280;49037;41.898;25.004;2022-07-21T17:06:58;96341.13;;;30.17
62932;BMP280;49037;41.898;25.004;2022-07-21T17:09:29;96355.50;;;30.10
62932;BMP280;49037;41.898;25.004;2022-07-21T17:12:05;96349.81;;;29.98
62932;BMP280;49037;41.898;25.004;2022-07-21T17:14:39;96360.13;;;29.96
62932;BMP280;49037;41.898;25.004;2022-07-21T18:01:07;96397.16;;;27.90
62932;BMP280;49037;41.898;25.004;2022-07-21T18:18:41;96440.34;;;27.32
62932;BMP280;49037;41.898;25.004;2022-07-21T18:45:09;96455.81;;;26.67
62932;BMP280;49037;41.898;25.004;2022-07-21T18:52:09;96470.47;;;26.77
62932;BMP280;49037;41.898;25.004;2022-07-21T19:00:53;96461.66;;;26.56
62932;BMP280;49037;41.898;25.004;2022-07-21T19:03:18;96454.69;;;26.53
62932;BMP280;49037;41.898;25.004;2022-07-21T19:05:44;96450.69;;;26.56
62932;BMP280;49037;41.898;25.004;2022-07-21T19:08:09;96452.16;;;26.59
62932;BMP280;49037;41.898;25.004;2022-07-21T19:10:35;96465.03;;;26.54
62932;BMP280;49037;41.898;25.004;2022-07-21T19:13:00;96462.72;;;26.45
62932;BMP280;49037;41.898;25.004;2022-07-21T19:15:26;96462.91;;;26.30
62932;BMP280;49037;41.898;25.004;2022-07-21T19:17:51;96455.13;;;26.20
62932;BMP280;49037;41.898;25.004;2022-07-21T19:20:18;96455.56;;;26.13
62932;BMP280;49037;41.898;25.004;2022-07-21T19:22:44;96459.03;;;26.13
62932;BMP280;49037;41.898;25.004;2022-07-21T19:25:11;96457.38;;;26.04
62932;BMP280;49037;41.898;25.004;2022-07-21T19:27:38;96451.13;;;26.02
62932;BMP280;49037;41.898;25.004;2022-07-21T19:30:05;96454.38;;;25.97
62932;BMP280;49037;41.898;25.004;2022-07-21T19:34:13;96451.59;;;25.95
62932;BMP280;49037;41.898;25.004;2022-07-21T19:36:39;96455.38;;;25.84
62932;BMP280;49037;41.898;25.004;2022-07-21T19:39:04;96449.13;;;25.81
62932;BMP280;49037;41.898;25.004;2022-07-21T19:41:30;96448.03;;;25.69
62932;BMP280;49037;41.898;25.004;2022-07-21T19:43:55;96452.56;;;25.61
62932;BMP280;49037;41.898;25.004;2022-07-21T19:46:21;96456.50;;;25.56
62932;BMP280;49037;41.898;25.004;2022-07-21T19:48:46;96459.13;;;25.52
62932;BMP280;49037;41.898;25.004;2022-07-21T19:51:12;96455.16;;;25.57
62932;BMP280;49037;41.898;25.004;2022-07-21T19:53:37;96460.38;;;25.49
62932;BMP280;49037;41.898;25.004;2022-07-21T19:58:23;96460.69;;;25.37
62932;BMP280;49037;41.898;25.004;2022-07-21T20:00:49;96465.25;;;25.31
62932;BMP280;49037;41.898;25.004;2022-07-21T20:03:14;96463.41;;;25.37
62932;BMP280;49037;41.898;25.004;2022-07-21T20:05:40;96467.63;;;25.40
62932;BMP280;49037;41.898;25.004;2022-07-21T20:08:05;96465.84;;;25.49
62932;BMP280;49037;41.898;25.004;2022-07-21T20:10:31;96464.50;;;25.50
62932;BMP280;49037;41.898;25.004;2022-07-21T20:12:57;96445.00;;;25.38
62932;BMP280;49037;41.898;25.004;2022-07-21T20:15:23;96469.22;;;25.47
62932;BMP280;49037;41.898;25.004;2022-07-21T20:17:48;96464.72;;;25.36
62932;BMP280;49037;41.898;25.004;2022-07-21T20:20:14;96469.53;;;25.36
62932;BMP280;49037;41.898;25.004;2022-07-21T20:22:40;96452.66;;;25.22
62932;BMP280;49037;41.898;25.004;2022-07-21T20:25:06;96464.06;;;25.17
62932;BMP280;49037;41.898;25.004;2022-07-21T20:27:32;96463.97;;;25.13
62932;BMP280;49037;41.898;25.004;2022-07-21T20:29:58;96459.66;;;25.08
62932;BMP280;49037;41.898;25.004;2022-07-21T20:32:23;96458.38;;;25.11
62932;BMP280;49037;41.898;25.004;2022-07-21T20:34:49;96457.59;;;25.06
62932;BMP280;49037;41.898;25.004;2022-07-21T20:37:14;96465.00;;;25.04